sensor_id;sensor_type;location;lat;lon;timestamp;P1;durP1;ratioP1;P2;durP2;ratioP2
66886;SDS011;53798;51.680;5.976;2022-08-18T00:01:11;74.05;;;52.65;;
66886;SDS011;53798;51.680;5.976;2022-08-18T00:03:45;71.07;;;52.20;;
66886;SDS011;53798;51.680;5.976;2022-08-18T00:06:26;67.50;;;50.65;;
66886;SDS011;53798;51.680;5.976;2022-08-18T00:08:59;71.63;;;52.38;;
66886;SDS011;53798;51.680;5.976;2022-08-18T00:11:34;70.65;;;52.63;;
66886;SDS011;53798;51.680;5.976;2022-08-18T00:14:17;68.35;;;50.55;;
66886;SDS011;53798;51.680;5.976;2022-08-18T00:16:49;69.28;;;50.58;;
66886;SDS011;53798;51.680;5.976;2022-08-18T00:19:20;74.43;;;51.67;;
66886;SDS011;53798;51.680;5.976;2022-08-18T00:22:09;66.13;;;50.28;;
66886;SDS011;53798;51.680;5.976;2022-08-18T00:24:42;66.03;;;51.58;;
66886;SDS011;53798;51.680;5.976;2022-08-18T00:27:16;65.78;;;48.30;;
66886;SDS011;53798;51.680;5.976;2022-08-18T00:29:54;66.82;;;51.08;;
66886;SDS011;53798;51.680;5.976;2022-08-18T00:32:27;65.10;;;49.95;;
66886;SDS011;53798;51.680;5.976;2022-08-18T00:35:13;65.60;;;49.45;;
66886;SDS011;53798;51.680;5.976;2022-08-18T00:37:47;65.88;;;48.65;;
66886;SDS011;53798;51.680;5.976;2022-08-18T00:40:16;63.25;;;45.65;;
66886;SDS011;53798;51.680;5.976;2022-08-18T00:42:52;71.43;;;51.90;;
66886;SDS011;53798;51.680;5.976;2022-08-18T00:45:26;70.40;;;51.92;;
66886;SDS011;53798;51.680;5.976;2022-08-18T00:48:04;73.25;;;51.67;;
66886;SDS011;53798;51.680;5.976;2022-08-18T00:53:24;70.00;;;49.00;;
66886;SDS011;53798;51.680;5.976;2022-08-18T00:56:30;72.03;;;52.45;;
66886;SDS011;53798;51.680;5.976;2022-08-18T00:59:15;68.85;;;46.05;;
66886;SDS011;53798;51.680;5.976;2022-08-18T01:02:01;70.13;;;51.00;;
66886;SDS011;53798;51.680;5.976;2022-08-18T01:04:34;74.15;;;52.38;;
66886;SDS011;53798;51.680;5.976;2022-08-18T01:07:17;76.72;;;51.22;;
66886;SDS011;53798;51.680;5.976;2022-08-18T01:09:55;77.10;;;53.08;;
66886;SDS011;53798;51.680;5.976;2022-08-18T01:12:29;83.25;;;54.80;;
66886;SDS011;53798;51.680;5.976;2022-08-18T01:15:12;73.82;;;51.53;;
66886;SDS011;53798;51.680;5.976;2022-08-18T01:17:56;79.22;;;53.95;;
66886;SDS011;53798;51.680;5.976;2022-08-18T01:24:01;75.38;;;53.67;;
66886;SDS011;53798;51.680;5.976;2022-08-18T01:26:37;82.90;;;54.30;;
66886;SDS011;53798;51.680;5.976;2022-08-18T01:29:12;78.85;;;53.25;;
66886;SDS011;53798;51.680;5.976;2022-08-18T01:31:51;80.22;;;51.55;;
66886;SDS011;53798;51.680;5.976;2022-08-18T01:34:24;79.53;;;53.80;;
66886;SDS011;53798;51.680;5.976;2022-08-18T01:36:54;81.90;;;52.00;;
66886;SDS011;53798;51.680;5.976;2022-08-18T01:39:22;82.65;;;54.20;;
66886;SDS011;53798;51.680;5.976;2022-08-18T01:42:10;85.38;;;54.40;;
66886;SDS011;53798;51.680;5.976;2022-08-18T01:44:45;80.45;;;53.97;;
66886;SDS011;53798;51.680;5.976;2022-08-18T01:47:14;74.25;;;49.67;;
66886;SDS011;53798;51.680;5.976;2022-08-18T01:49:44;84.10;;;53.17;;
66886;SDS011;53798;51.680;5.976;2022-08-18T01:52:15;81.78;;;52.38;;
66886;SDS011;53798;51.680;5.976;2022-08-18T01:54:47;82.25;;;55.88;;
66886;SDS011;53798;51.680;5.976;2022-08-18T01:57:16;72.35;;;48.58;;
66886;SDS011;53798;51.680;5.976;2022-08-18T01:59:45;81.28;;;52.58;;
66886;SDS011;53798;51.680;5.976;2022-08-18T02:02:13;66.97;;;45.75;;
66886;SDS011;53798;51.680;5.976;2022-08-18T02:04:48;79.38;;;48.75;;
66886;SDS011;53798;51.680;5.976;2022-08-18T02:07:22;82.32;;;54.42;;
66886;SDS011;53798;51.680;5.976;2022-08-18T02:09:59;78.50;;;51.40;;
66886;SDS011;53798;51.680;5.976;2022-08-18T02:12:28;76.45;;;49.33;;
66886;SDS011;53798;51.680;5.976;2022-08-18T02:14:55;84.18;;;51.60;;
66886;SDS011;53798;51.680;5.976;2022-08-18T02:17:22;74.13;;;50.85;;
66886;SDS011;53798;51.680;5.976;2022-08-18T02:19:49;66.38;;;44.92;;
66886;SDS011;53798;51.680;5.976;2022-08-18T02:22:17;70.65;;;46.53;;
66886;SDS011;53798;51.680;5.976;2022-08-18T02:24:46;66.15;;;44.30;;
66886;SDS011;53798;51.680;5.976;2022-08-18T02:27:14;67.20;;;43.88;;
66886;SDS011;53798;51.680;5.976;2022-08-18T02:29:41;69.60;;;43.33;;
66886;SDS011;53798;51.680;5.976;2022-08-18T02:32:09;65.70;;;42.58;;
66886;SDS011;53798;51.680;5.976;2022-08-18T02:34:36;72.80;;;47.85;;
66886;SDS011;53798;51.680;5.976;2022-08-18T02:37:03;63.80;;;40.63;;
66886;SDS011;53798;51.680;5.976;2022-08-18T02:39:32;59.97;;;40.50;;
66886;SDS011;53798;51.680;5.976;2022-08-18T02:42:04;61.58;;;38.22;;
66886;SDS011;53798;51.680;5.976;2022-08-18T02:44:33;58.65;;;38.70;;
66886;SDS011;53798;51.680;5.976;2022-08-18T02:47:01;57.17;;;36.83;;
66886;SDS011;53798;51.680;5.976;2022-08-18T02:49:28;54.38;;;37.15;;
66886;SDS011;53798;51.680;5.976;2022-08-18T02:51:55;57.33;;;36.92;;
66886;SDS011;53798;51.680;5.976;2022-08-18T02:54:23;51.25;;;36.13;;
66886;SDS011;53798;51.680;5.976;2022-08-18T02:56:51;51.92;;;35.67;;
66886;SDS011;53798;51.680;5.976;2022-08-18T02:59:21;56.55;;;39.17;;
66886;SDS011;53798;51.680;5.976;2022-08-18T03:01:51;51.42;;;36.42;;
66886;SDS011;53798;51.680;5.976;2022-08-18T03:04:23;52.08;;;34.33;;
66886;SDS011;53798;51.680;5.976;2022-08-18T03:06:57;47.90;;;34.20;;
66886;SDS011;53798;51.680;5.976;2022-08-18T03:09:29;47.38;;;34.08;;
66886;SDS011;53798;51.680;5.976;2022-08-18T03:11:58;53.88;;;34.83;;
66886;SDS011;53798;51.680;5.976;2022-08-18T03:14:26;49.63;;;35.42;;
66886;SDS011;53798;51.680;5.976;2022-08-18T03:16:53;46.28;;;34.00;;
66886;SDS011;53798;51.680;5.976;2022-08-18T03:19:25;44.95;;;33.33;;
66886;SDS011;53798;51.680;5.976;2022-08-18T03:21:55;46.28;;;32.75;;
66886;SDS011;53798;51.680;5.976;2022-08-18T03:26:58;44.65;;;32.53;;
66886;SDS011;53798;51.680;5.976;2022-08-18T03:29:32;40.00;;;31.05;;
66886;SDS011;53798;51.680;5.976;2022-08-18T03:32:01;41.08;;;30.88;;
66886;SDS011;53798;51.680;5.976;2022-08-18T03:34:31;43.20;;;31.83;;
66886;SDS011;53798;51.680;5.976;2022-08-18T03:36:59;43.17;;;31.40;;
66886;SDS011;53798;51.680;5.976;2022-08-18T03:39:27;41.58;;;30.38;;
66886;SDS011;53798;51.680;5.976;2022-08-18T03:41:55;42.13;;;30.38;;
66886;SDS011;53798;51.680;5.976;2022-08-18T03:44:28;39.10;;;30.75;;
66886;SDS011;53798;51.680;5.976;2022-08-18T03:47:08;40.50;;;29.88;;
66886;SDS011;53798;51.680;5.976;2022-08-18T03:49:37;41.72;;;29.75;;
66886;SDS011;53798;51.680;5.976;2022-08-18T03:52:09;36.60;;;27.65;;
66886;SDS011;53798;51.680;5.976;2022-08-18T03:54:36;39.95;;;29.73;;
66886;SDS011;53798;51.680;5.976;2022-08-18T03:57:08;37.08;;;28.45;;
66886;SDS011;53798;51.680;5.976;2022-08-18T03:59:37;36.60;;;28.38;;
66886;SDS011;53798;51.680;5.976;2022-08-18T04:02:09;37.03;;;26.70;;
66886;SDS011;53798;51.680;5.976;2022-08-18T04:04:37;35.17;;;28.02;;
66886;SDS011;53798;51.680;5.976;2022-08-18T04:07:09;36.03;;;24.98;;
66886;SDS011;53798;51.680;5.976;2022-08-18T04:09:40;34.45;;;25.90;;
66886;SDS011;53798;51.680;5.976;2022-08-18T04:12:10;35.20;;;26.48;;
66886;SDS011;53798;51.680;5.976;2022-08-18T04:14:43;29.52;;;24.17;;
66886;SDS011;53798;51.680;5.976;2022-08-18T04:17:16;27.77;;;21.40;;
66886;SDS011;53798;51.680;5.976;2022-08-18T04:19:50;25.13;;;20.20;;
66886;SDS011;53798;51.680;5.976;2022-08-18T04:22:21;29.45;;;22.80;;
66886;SDS011;53798;51.680;5.976;2022-08-18T04:24:50;27.38;;;21.95;;
66886;SDS011;53798;51.680;5.976;2022-08-18T04:27:19;23.73;;;20.15;;
66886;SDS011;53798;51.680;5.976;2022-08-18T04:29:47;25.65;;;21.45;;
66886;SDS011;53798;51.680;5.976;2022-08-18T04:32:15;22.45;;;19.35;;
66886;SDS011;53798;51.680;5.976;2022-08-18T04:34:43;24.92;;;20.45;;
66886;SDS011;53798;51.680;5.976;2022-08-18T04:37:10;27.20;;;21.92;;
66886;SDS011;53798;51.680;5.976;2022-08-18T04:39:37;28.40;;;20.88;;
66886;SDS011;53798;51.680;5.976;2022-08-18T04:42:05;24.08;;;18.65;;
66886;SDS011;53798;51.680;5.976;2022-08-18T04:44:33;27.10;;;18.52;;
66886;SDS011;53798;51.680;5.976;2022-08-18T04:47:04;22.40;;;18.13;;
66886;SDS011;53798;51.680;5.976;2022-08-18T04:49:34;27.38;;;17.85;;
66886;SDS011;53798;51.680;5.976;2022-08-18T04:52:03;22.00;;;17.58;;
66886;SDS011;53798;51.680;5.976;2022-08-18T04:55:06;23.05;;;17.15;;
66886;SDS011;53798;51.680;5.976;2022-08-18T04:57:35;20.30;;;17.52;;
66886;SDS011;53798;51.680;5.976;2022-08-18T05:00:04;26.02;;;18.75;;
66886;SDS011;53798;51.680;5.976;2022-08-18T05:02:32;26.65;;;18.77;;
66886;SDS011;53798;51.680;5.976;2022-08-18T05:05:00;23.48;;;17.77;;
66886;SDS011;53798;51.680;5.976;2022-08-18T05:07:30;23.77;;;17.92;;
66886;SDS011;53798;51.680;5.976;2022-08-18T05:09:58;27.00;;;18.67;;
66886;SDS011;53798;51.680;5.976;2022-08-18T05:12:25;21.73;;;18.52;;
66886;SDS011;53798;51.680;5.976;2022-08-18T05:14:53;27.33;;;19.15;;
66886;SDS011;53798;51.680;5.976;2022-08-18T05:17:23;24.63;;;18.75;;
66886;SDS011;53798;51.680;5.976;2022-08-18T05:19:57;26.10;;;19.53;;
66886;SDS011;53798;51.680;5.976;2022-08-18T05:22:27;23.10;;;16.77;;
66886;SDS011;53798;51.680;5.976;2022-08-18T05:24:57;22.48;;;16.55;;
66886;SDS011;53798;51.680;5.976;2022-08-18T05:27:29;22.42;;;17.65;;
66886;SDS011;53798;51.680;5.976;2022-08-18T05:30:02;23.42;;;18.35;;
66886;SDS011;53798;51.680;5.976;2022-08-18T05:32:33;22.73;;;18.30;;
66886;SDS011;53798;51.680;5.976;2022-08-18T05:35:21;30.13;;;18.15;;
66886;SDS011;53798;51.680;5.976;2022-08-18T05:41:09;27.40;;;18.98;;
66886;SDS011;53798;51.680;5.976;2022-08-18T05:43:45;30.50;;;18.63;;
66886;SDS011;53798;51.680;5.976;2022-08-18T05:46:18;19.73;;;16.60;;
66886;SDS011;53798;51.680;5.976;2022-08-18T05:48:56;22.67;;;17.45;;
66886;SDS011;53798;51.680;5.976;2022-08-18T05:51:28;25.30;;;18.98;;
66886;SDS011;53798;51.680;5.976;2022-08-18T05:54:05;23.83;;;18.42;;
66886;SDS011;53798;51.680;5.976;2022-08-18T05:56:53;22.63;;;17.55;;
66886;SDS011;53798;51.680;5.976;2022-08-18T05:59:28;23.77;;;18.27;;
66886;SDS011;53798;51.680;5.976;2022-08-18T06:02:54;24.67;;;19.25;;
66886;SDS011;53798;51.680;5.976;2022-08-18T06:05:08;21.88;;;18.23;;
66886;SDS011;53798;51.680;5.976;2022-08-18T06:08:03;21.98;;;16.45;;
66886;SDS011;53798;51.680;5.976;2022-08-18T06:10:36;24.13;;;18.38;;
66886;SDS011;53798;51.680;5.976;2022-08-18T06:13:08;27.92;;;20.08;;
66886;SDS011;53798;51.680;5.976;2022-08-18T06:18:36;25.45;;;20.73;;
66886;SDS011;53798;51.680;5.976;2022-08-18T06:24:08;29.10;;;22.60;;
66886;SDS011;53798;51.680;5.976;2022-08-18T06:26:56;29.00;;;21.92;;
66886;SDS011;53798;51.680;5.976;2022-08-18T06:29:40;31.33;;;24.17;;
66886;SDS011;53798;51.680;5.976;2022-08-18T06:32:33;43.75;;;28.20;;
66886;SDS011;53798;51.680;5.976;2022-08-18T06:41:25;38.55;;;25.65;;
66886;SDS011;53798;51.680;5.976;2022-08-18T06:44:31;38.65;;;25.10;;
66886;SDS011;53798;51.680;5.976;2022-08-18T06:49:53;31.35;;;25.08;;
66886;SDS011;53798;51.680;5.976;2022-08-18T06:52:50;30.92;;;23.48;;
66886;SDS011;53798;51.680;5.976;2022-08-18T06:55:34;31.48;;;24.67;;
66886;SDS011;53798;51.680;5.976;2022-08-18T06:58:17;32.92;;;25.25;;
66886;SDS011;53798;51.680;5.976;2022-08-18T07:00:59;37.20;;;24.75;;
66886;SDS011;53798;51.680;5.976;2022-08-18T07:06:01;31.92;;;23.67;;
66886;SDS011;53798;51.680;5.976;2022-08-18T07:08:47;27.33;;;20.58;;
66886;SDS011;53798;51.680;5.976;2022-08-18T07:11:24;23.23;;;17.50;;
66886;SDS011;53798;51.680;5.976;2022-08-18T07:13:56;19.83;;;16.88;;
66886;SDS011;53798;51.680;5.976;2022-08-18T07:16:47;23.88;;;17.52;;
66886;SDS011;53798;51.680;5.976;2022-08-18T07:19:27;20.45;;;15.38;;
66886;SDS011;53798;51.680;5.976;2022-08-18T07:22:01;17.98;;;14.15;;
66886;SDS011;53798;51.680;5.976;2022-08-18T07:24:47;18.45;;;14.00;;
66886;SDS011;53798;51.680;5.976;2022-08-18T07:27:41;22.90;;;14.68;;
66886;SDS011;53798;51.680;5.976;2022-08-18T07:33:27;19.38;;;15.63;;
66886;SDS011;53798;51.680;5.976;2022-08-18T07:35:49;16.75;;;13.10;;
66886;SDS011;53798;51.680;5.976;2022-08-18T07:38:41;13.75;;;9.70;;
66886;SDS011;53798;51.680;5.976;2022-08-18T07:41:25;16.50;;;10.82;;
66886;SDS011;53798;51.680;5.976;2022-08-18T07:44:22;14.80;;;9.10;;
66886;SDS011;53798;51.680;5.976;2022-08-18T07:47:25;11.02;;;7.88;;
66886;SDS011;53798;51.680;5.976;2022-08-18T07:50:15;9.02;;;6.60;;
66886;SDS011;53798;51.680;5.976;2022-08-18T07:56:09;12.02;;;7.32;;
66886;SDS011;53798;51.680;5.976;2022-08-18T07:58:56;19.80;;;10.55;;
66886;SDS011;53798;51.680;5.976;2022-08-18T08:01:45;21.20;;;10.68;;
66886;SDS011;53798;51.680;5.976;2022-08-18T08:07:55;23.30;;;9.90;;
66886;SDS011;53798;51.680;5.976;2022-08-18T08:19:35;21.10;;;8.40;;
66886;SDS011;53798;51.680;5.976;2022-08-18T08:22:32;12.52;;;8.65;;
66886;SDS011;53798;51.680;5.976;2022-08-18T08:37:00;11.65;;;8.13;;
66886;SDS011;53798;51.680;5.976;2022-08-18T08:42:13;12.15;;;7.53;;
66886;SDS011;53798;51.680;5.976;2022-08-18T08:44:58;13.70;;;8.40;;
66886;SDS011;53798;51.680;5.976;2022-08-18T08:50:46;10.27;;;7.75;;
66886;SDS011;53798;51.680;5.976;2022-08-18T08:53:34;11.00;;;8.55;;
66886;SDS011;53798;51.680;5.976;2022-08-18T08:56:12;11.68;;;8.13;;
66886;SDS011;53798;51.680;5.976;2022-08-18T08:58:47;18.23;;;8.40;;
66886;SDS011;53798;51.680;5.976;2022-08-18T09:01:39;11.32;;;7.10;;
66886;SDS011;53798;51.680;5.976;2022-08-18T09:14:06;11.57;;;6.78;;
66886;SDS011;53798;51.680;5.976;2022-08-18T09:20:05;7.43;;;5.57;;
66886;SDS011;53798;51.680;5.976;2022-08-18T09:23:29;11.52;;;5.90;;
66886;SDS011;53798;51.680;5.976;2022-08-18T09:26:23;12.00;;;5.70;;
66886;SDS011;53798;51.680;5.976;2022-08-18T09:29:13;7.90;;;5.47;;
66886;SDS011;53798;51.680;5.976;2022-08-18T09:31:45;8.18;;;5.47;;
66886;SDS011;53798;51.680;5.976;2022-08-18T09:34:24;9.95;;;5.53;;
66886;SDS011;53798;51.680;5.976;2022-08-18T09:37:32;11.43;;;5.88;;
66886;SDS011;53798;51.680;5.976;2022-08-18T09:43:30;12.20;;;6.93;;
66886;SDS011;53798;51.680;5.976;2022-08-18T09:46:05;8.40;;;6.05;;
66886;SDS011;53798;51.680;5.976;2022-08-18T09:48:38;7.07;;;6.30;;
66886;SDS011;53798;51.680;5.976;2022-08-18T09:56:13;8.77;;;5.78;;
66886;SDS011;53798;51.680;5.976;2022-08-18T10:07:46;10.38;;;6.07;;
66886;SDS011;53798;51.680;5.976;2022-08-18T10:10:48;8.25;;;5.90;;
66886;SDS011;53798;51.680;5.976;2022-08-18T10:17:10;7.03;;;5.53;;
66886;SDS011;53798;51.680;5.976;2022-08-18T10:22:56;6.43;;;5.68;;
66886;SDS011;53798;51.680;5.976;2022-08-18T10:25:31;9.07;;;5.95;;
66886;SDS011;53798;51.680;5.976;2022-08-18T10:28:10;8.50;;;5.10;;
66886;SDS011;53798;51.680;5.976;2022-08-18T10:32:15;7.80;;;5.30;;
66886;SDS011;53798;51.680;5.976;2022-08-18T10:37:22;8.45;;;5.65;;
66886;SDS011;53798;51.680;5.976;2022-08-18T10:42:40;6.68;;;4.63;;
66886;SDS011;53798;51.680;5.976;2022-08-18T10:45:37;9.82;;;5.80;;
66886;SDS011;53798;51.680;5.976;2022-08-18T10:48:32;8.85;;;5.28;;
66886;SDS011;53798;51.680;5.976;2022-08-18T10:57:36;6.93;;;5.05;;
66886;SDS011;53798;51.680;5.976;2022-08-18T11:00:22;8.70;;;5.70;;
66886;SDS011;53798;51.680;5.976;2022-08-18T11:06:41;5.18;;;4.50;;
66886;SDS011;53798;51.680;5.976;2022-08-18T11:09:20;7.40;;;4.70;;
66886;SDS011;53798;51.680;5.976;2022-08-18T11:11:54;7.30;;;5.30;;
66886;SDS011;53798;51.680;5.976;2022-08-18T11:17:35;9.63;;;5.95;;
66886;SDS011;53798;51.680;5.976;2022-08-18T11:20:18;8.02;;;6.05;;
66886;SDS011;53798;51.680;5.976;2022-08-18T11:22:53;10.03;;;7.30;;
66886;SDS011;53798;51.680;5.976;2022-08-18T11:25:25;7.50;;;6.70;;
66886;SDS011;53798;51.680;5.976;2022-08-18T11:27:58;10.82;;;6.88;;
66886;SDS011;53798;51.680;5.976;2022-08-18T11:30:29;9.38;;;5.82;;
66886;SDS011;53798;51.680;5.976;2022-08-18T11:33:05;6.82;;;6.13;;
66886;SDS011;53798;51.680;5.976;2022-08-18T11:35:34;8.55;;;5.90;;
66886;SDS011;53798;51.680;5.976;2022-08-18T11:38:14;9.20;;;6.10;;
66886;SDS011;53798;51.680;5.976;2022-08-18T11:40:53;8.45;;;6.30;;
66886;SDS011;53798;51.680;5.976;2022-08-18T11:43:43;8.05;;;6.15;;
66886;SDS011;53798;51.680;5.976;2022-08-18T11:48:54;8.02;;;5.93;;
66886;SDS011;53798;51.680;5.976;2022-08-18T11:51:23;6.40;;;5.25;;
66886;SDS011;53798;51.680;5.976;2022-08-18T11:53:55;10.40;;;6.13;;
66886;SDS011;53798;51.680;5.976;2022-08-18T11:59:05;7.82;;;5.05;;
66886;SDS011;53798;51.680;5.976;2022-08-18T12:02:21;7.72;;;5.25;;
66886;SDS011;53798;51.680;5.976;2022-08-18T12:04:53;10.23;;;5.55;;
66886;SDS011;53798;51.680;5.976;2022-08-18T12:07:35;7.07;;;5.32;;
66886;SDS011;53798;51.680;5.976;2022-08-18T12:10:24;6.80;;;4.78;;
66886;SDS011;53798;51.680;5.976;2022-08-18T12:12:55;7.68;;;4.15;;
66886;SDS011;53798;51.680;5.976;2022-08-18T12:18:14;8.40;;;5.97;;
66886;SDS011;53798;51.680;5.976;2022-08-18T12:21:03;12.55;;;6.15;;
66886;SDS011;53798;51.680;5.976;2022-08-18T12:23:32;6.78;;;5.55;;
66886;SDS011;53798;51.680;5.976;2022-08-18T12:26:15;11.82;;;5.57;;
66886;SDS011;53798;51.680;5.976;2022-08-18T12:29:03;5.53;;;4.88;;
66886;SDS011;53798;51.680;5.976;2022-08-18T12:31:34;11.00;;;4.93;;
66886;SDS011;53798;51.680;5.976;2022-08-18T12:34:14;7.35;;;5.50;;
66886;SDS011;53798;51.680;5.976;2022-08-18T12:36:50;9.50;;;6.22;;
66886;SDS011;53798;51.680;5.976;2022-08-18T12:39:21;6.78;;;4.82;;
66886;SDS011;53798;51.680;5.976;2022-08-18T12:41:50;5.82;;;4.28;;
66886;SDS011;53798;51.680;5.976;2022-08-18T12:44:17;6.90;;;4.85;;
66886;SDS011;53798;51.680;5.976;2022-08-18T12:46:45;5.30;;;4.28;;
66886;SDS011;53798;51.680;5.976;2022-08-18T12:49:15;7.22;;;4.50;;
66886;SDS011;53798;51.680;5.976;2022-08-18T12:51:50;5.32;;;4.47;;
66886;SDS011;53798;51.680;5.976;2022-08-18T12:54:21;9.40;;;4.32;;
66886;SDS011;53798;51.680;5.976;2022-08-18T12:56:51;6.75;;;4.78;;
66886;SDS011;53798;51.680;5.976;2022-08-18T12:59:22;7.47;;;4.00;;
66886;SDS011;53798;51.680;5.976;2022-08-18T13:01:50;7.63;;;4.32;;
66886;SDS011;53798;51.680;5.976;2022-08-18T13:04:38;5.28;;;3.78;;
66886;SDS011;53798;51.680;5.976;2022-08-18T13:07:05;18.85;;;4.53;;
66886;SDS011;53798;51.680;5.976;2022-08-18T13:09:35;4.72;;;3.58;;
66886;SDS011;53798;51.680;5.976;2022-08-18T13:12:20;8.55;;;3.90;;
66886;SDS011;53798;51.680;5.976;2022-08-18T13:14:53;7.53;;;3.92;;
66886;SDS011;53798;51.680;5.976;2022-08-18T13:17:20;8.00;;;3.63;;
66886;SDS011;53798;51.680;5.976;2022-08-18T13:20:00;6.55;;;3.70;;
66886;SDS011;53798;51.680;5.976;2022-08-18T13:22:33;7.45;;;3.60;;
66886;SDS011;53798;51.680;5.976;2022-08-18T13:25:03;4.63;;;3.63;;
66886;SDS011;53798;51.680;5.976;2022-08-18T13:27:33;5.40;;;3.67;;
66886;SDS011;53798;51.680;5.976;2022-08-18T13:30:04;6.20;;;3.83;;
66886;SDS011;53798;51.680;5.976;2022-08-18T13:32:56;4.72;;;3.70;;
66886;SDS011;53798;51.680;5.976;2022-08-18T13:35:28;5.32;;;3.60;;
66886;SDS011;53798;51.680;5.976;2022-08-18T13:38:11;7.88;;;4.47;;
66886;SDS011;53798;51.680;5.976;2022-08-18T13:40:48;7.68;;;3.70;;
66886;SDS011;53798;51.680;5.976;2022-08-18T13:43:18;6.07;;;3.95;;
66886;SDS011;53798;51.680;5.976;2022-08-18T13:45:52;6.25;;;3.72;;
66886;SDS011;53798;51.680;5.976;2022-08-18T13:48:22;8.15;;;4.40;;
66886;SDS011;53798;51.680;5.976;2022-08-18T13:50:52;6.63;;;3.90;;
66886;SDS011;53798;51.680;5.976;2022-08-18T13:53:21;8.13;;;3.90;;
66886;SDS011;53798;51.680;5.976;2022-08-18T13:55:53;11.75;;;4.30;;
66886;SDS011;53798;51.680;5.976;2022-08-18T13:58:27;7.55;;;5.15;;
66886;SDS011;53798;51.680;5.976;2022-08-18T14:00:56;5.80;;;4.65;;
66886;SDS011;53798;51.680;5.976;2022-08-18T14:03:48;13.75;;;5.15;;
66886;SDS011;53798;51.680;5.976;2022-08-18T14:06:16;8.45;;;4.72;;
66886;SDS011;53798;51.680;5.976;2022-08-18T14:08:50;10.25;;;5.35;;
66886;SDS011;53798;51.680;5.976;2022-08-18T14:11:24;5.22;;;4.57;;
66886;SDS011;53798;51.680;5.976;2022-08-18T14:13:59;9.05;;;4.40;;
66886;SDS011;53798;51.680;5.976;2022-08-18T14:16:28;4.95;;;4.40;;
66886;SDS011;53798;51.680;5.976;2022-08-18T14:18:56;6.03;;;4.53;;
66886;SDS011;53798;51.680;5.976;2022-08-18T14:21:44;8.57;;;5.30;;
66886;SDS011;53798;51.680;5.976;2022-08-18T14:24:37;7.80;;;5.35;;
66886;SDS011;53798;51.680;5.976;2022-08-18T14:27:27;8.93;;;5.00;;
66886;SDS011;53798;51.680;5.976;2022-08-18T14:30:06;8.65;;;5.18;;
66886;SDS011;53798;51.680;5.976;2022-08-18T14:32:39;6.35;;;5.25;;
66886;SDS011;53798;51.680;5.976;2022-08-18T14:35:16;6.35;;;4.75;;
66886;SDS011;53798;51.680;5.976;2022-08-18T14:38:05;9.15;;;5.38;;
66886;SDS011;53798;51.680;5.976;2022-08-18T14:40:36;8.25;;;5.75;;
66886;SDS011;53798;51.680;5.976;2022-08-18T14:43:09;5.72;;;4.95;;
66886;SDS011;53798;51.680;5.976;2022-08-18T14:45:40;7.70;;;5.65;;
66886;SDS011;53798;51.680;5.976;2022-08-18T14:48:15;9.77;;;5.53;;
66886;SDS011;53798;51.680;5.976;2022-08-18T14:50:49;34.57;;;7.03;;
66886;SDS011;53798;51.680;5.976;2022-08-18T14:53:22;11.20;;;5.78;;
66886;SDS011;53798;51.680;5.976;2022-08-18T14:55:54;8.52;;;5.05;;
66886;SDS011;53798;51.680;5.976;2022-08-18T14:58:26;7.20;;;5.25;;
66886;SDS011;53798;51.680;5.976;2022-08-18T15:00:56;7.78;;;5.28;;
66886;SDS011;53798;51.680;5.976;2022-08-18T15:03:28;5.40;;;4.70;;
66886;SDS011;53798;51.680;5.976;2022-08-18T15:05:58;7.57;;;5.10;;
66886;SDS011;53798;51.680;5.976;2022-08-18T15:08:31;10.18;;;5.95;;
66886;SDS011;53798;51.680;5.976;2022-08-18T15:11:01;7.95;;;5.20;;
66886;SDS011;53798;51.680;5.976;2022-08-18T15:13:41;6.07;;;5.22;;
66886;SDS011;53798;51.680;5.976;2022-08-18T15:18:44;9.65;;;5.60;;
66886;SDS011;53798;51.680;5.976;2022-08-18T15:21:13;6.88;;;5.97;;
66886;SDS011;53798;51.680;5.976;2022-08-18T15:24:05;9.32;;;5.47;;
66886;SDS011;53798;51.680;5.976;2022-08-18T15:26:53;6.85;;;6.00;;
66886;SDS011;53798;51.680;5.976;2022-08-18T15:29:32;6.90;;;5.38;;
66886;SDS011;53798;51.680;5.976;2022-08-18T15:32:00;7.80;;;5.88;;
66886;SDS011;53798;51.680;5.976;2022-08-18T15:34:36;8.88;;;6.60;;
66886;SDS011;53798;51.680;5.976;2022-08-18T15:37:16;7.53;;;6.82;;
66886;SDS011;53798;51.680;5.976;2022-08-18T15:39:57;10.40;;;6.45;;
66886;SDS011;53798;51.680;5.976;2022-08-18T15:42:57;9.20;;;6.55;;
66886;SDS011;53798;51.680;5.976;2022-08-18T15:45:28;7.55;;;6.22;;
66886;SDS011;53798;51.680;5.976;2022-08-18T15:48:01;6.68;;;5.30;;
66886;SDS011;53798;51.680;5.976;2022-08-18T15:50:29;6.22;;;5.13;;
66886;SDS011;53798;51.680;5.976;2022-08-18T15:52:59;9.00;;;4.90;;
66886;SDS011;53798;51.680;5.976;2022-08-18T15:55:35;6.43;;;5.18;;
66886;SDS011;53798;51.680;5.976;2022-08-18T15:58:05;6.07;;;4.97;;
66886;SDS011;53798;51.680;5.976;2022-08-18T16:00:39;6.50;;;5.82;;
66886;SDS011;53798;51.680;5.976;2022-08-18T16:05:46;5.72;;;5.10;;
66886;SDS011;53798;51.680;5.976;2022-08-18T16:08:19;6.43;;;5.80;;
66886;SDS011;53798;51.680;5.976;2022-08-18T16:10:49;6.50;;;5.40;;
66886;SDS011;53798;51.680;5.976;2022-08-18T16:13:18;9.25;;;5.03;;
66886;SDS011;53798;51.680;5.976;2022-08-18T16:15:46;5.80;;;4.95;;
66886;SDS011;53798;51.680;5.976;2022-08-18T16:18:16;5.72;;;4.50;;
66886;SDS011;53798;51.680;5.976;2022-08-18T16:20:46;5.65;;;4.68;;
66886;SDS011;53798;51.680;5.976;2022-08-18T16:23:18;4.72;;;4.32;;
66886;SDS011;53798;51.680;5.976;2022-08-18T16:25:45;5.05;;;3.50;;
66886;SDS011;53798;51.680;5.976;2022-08-18T16:28:12;3.42;;;2.92;;
66886;SDS011;53798;51.680;5.976;2022-08-18T16:30:39;4.13;;;3.70;;
66886;SDS011;53798;51.680;5.976;2022-08-18T16:33:07;4.65;;;3.50;;
66886;SDS011;53798;51.680;5.976;2022-08-18T16:35:35;4.63;;;3.33;;
66886;SDS011;53798;51.680;5.976;2022-08-18T16:38:06;3.83;;;3.08;;
66886;SDS011;53798;51.680;5.976;2022-08-18T16:40:35;4.10;;;3.65;;
66886;SDS011;53798;51.680;5.976;2022-08-18T16:43:03;5.05;;;3.95;;
66886;SDS011;53798;51.680;5.976;2022-08-18T16:45:32;3.65;;;3.35;;
66886;SDS011;53798;51.680;5.976;2022-08-18T16:48:02;5.20;;;3.95;;
66886;SDS011;53798;51.680;5.976;2022-08-18T16:50:29;4.53;;;3.70;;
66886;SDS011;53798;51.680;5.976;2022-08-18T16:52:56;4.25;;;3.85;;
66886;SDS011;53798;51.680;5.976;2022-08-18T16:55:24;5.10;;;3.78;;
66886;SDS011;53798;51.680;5.976;2022-08-18T16:57:51;5.18;;;4.07;;
66886;SDS011;53798;51.680;5.976;2022-08-18T17:00:41;6.63;;;4.15;;
66886;SDS011;53798;51.680;5.976;2022-08-18T17:03:28;5.45;;;4.10;;
66886;SDS011;53798;51.680;5.976;2022-08-18T17:06:14;5.28;;;4.28;;
66886;SDS011;53798;51.680;5.976;2022-08-18T17:08:44;9.02;;;3.97;;
66886;SDS011;53798;51.680;5.976;2022-08-18T17:11:13;6.78;;;4.65;;
66886;SDS011;53798;51.680;5.976;2022-08-18T17:13:43;5.55;;;5.05;;
66886;SDS011;53798;51.680;5.976;2022-08-18T17:16:14;4.95;;;3.95;;
66886;SDS011;53798;51.680;5.976;2022-08-18T17:18:44;4.82;;;3.80;;
66886;SDS011;53798;51.680;5.976;2022-08-18T17:21:16;5.25;;;3.67;;
66886;SDS011;53798;51.680;5.976;2022-08-18T17:23:50;5.28;;;3.92;;
66886;SDS011;53798;51.680;5.976;2022-08-18T17:26:41;5.70;;;3.78;;
66886;SDS011;53798;51.680;5.976;2022-08-18T17:35:13;5.05;;;3.50;;
66886;SDS011;53798;51.680;5.976;2022-08-18T17:38:09;5.93;;;3.58;;
66886;SDS011;53798;51.680;5.976;2022-08-18T17:40:50;6.85;;;3.72;;
66886;SDS011;53798;51.680;5.976;2022-08-18T17:43:22;3.92;;;3.22;;
66886;SDS011;53798;51.680;5.976;2022-08-18T17:52:40;6.95;;;3.78;;